createdAt,value
2022-12-11T00:02:03.798Z,72.32
2022-12-11T00:04:31.389Z,72.80
2022-12-11T00:06:58.214Z,72.88
2022-12-11T00:09:24.786Z,73.26
2022-12-11T00:11:54.270Z,73.14
2022-12-11T00:14:22.203Z,73.36
2022-12-11T00:16:50.433Z,73.33
2022-12-11T00:19:19.088Z,73.29
2022-12-11T00:21:45.874Z,73.61
2022-12-11T00:24:12.498Z,74.04
2022-12-11T00:26:39.546Z,73.89
2022-12-11T00:29:08.401Z,73.74
2022-12-11T00:31:36.224Z,74.51
2022-12-11T00:34:04.824Z,74.59
2022-12-11T00:36:32.478Z,74.84
2022-12-11T00:38:59.231Z,75.29
2022-12-11T00:41:25.872Z,74.56
2022-12-11T00:43:54.309Z,75.31
2022-12-11T00:46:21.315Z,75.26
2022-12-11T00:48:51.117Z,75.91
2022-12-11T00:51:25.408Z,75.58
2022-12-11T00:53:56.289Z,76.43
2022-12-11T00:56:25.443Z,76.19
2022-12-11T00:58:54.292Z,75.87
2022-12-11T01:01:24.194Z,75.78
2022-12-11T01:03:52.650Z,75.90
2022-12-11T01:06:23.411Z,75.87
2022-12-11T01:09:14.349Z,75.87
2022-12-11T01:11:42.576Z,75.96
2022-12-11T01:14:11.781Z,76.59
2022-12-11T01:16:38.727Z,75.92
2022-12-11T01:19:06.651Z,75.81
2022-12-11T01:21:33.859Z,75.43
2022-12-11T01:24:02.190Z,75.61
2022-12-11T01:26:30.167Z,76.37
2022-12-11T01:28:56.781Z,76.12
2022-12-11T01:31:25.467Z,76.16
2022-12-11T01:33:59.301Z,76.00
2022-12-11T01:36:26.271Z,75.71
2022-12-11T01:38:54.811Z,75.78
2022-12-11T01:41:21.813Z,75.52
2022-12-11T01:44:04.020Z,75.74
2022-12-11T01:46:35.471Z,75.83
2022-12-11T01:49:06.124Z,75.85
2022-12-11T01:51:37.220Z,75.80
2022-12-11T01:54:09.236Z,75.59
2022-12-11T01:56:40.528Z,75.85
2022-12-11T01:59:09.412Z,77.43
2022-12-11T02:01:51.266Z,77.37
2022-12-11T02:04:19.803Z,77.18
2022-12-11T02:06:49.091Z,77.22
2022-12-11T02:09:19.054Z,77.13
2022-12-11T02:12:30.455Z,77.77
2022-12-11T02:15:13.712Z,77.87
2022-12-11T02:18:00.014Z,77.81
2022-12-11T02:20:45.897Z,78.05
2022-12-11T02:23:15.364Z,77.36
2022-12-11T02:26:05.581Z,78.44
2022-12-11T02:28:38.338Z,78.00
2022-12-11T02:31:26.771Z,77.69
2022-12-11T02:34:03.313Z,78.37
2022-12-11T02:36:35.960Z,77.89
2022-12-11T02:39:12.515Z,77.39
2022-12-11T02:41:48.878Z,77.46
2022-12-11T02:44:21.156Z,78.27
2022-12-11T02:46:49.673Z,77.80
2022-12-11T02:49:16.845Z,78.70
2022-12-11T02:51:44.340Z,78.66
2022-12-11T02:54:21.085Z,79.35
2022-12-11T02:57:06.335Z,79.85
2022-12-11T02:59:40.075Z,81.05
2022-12-11T03:02:08.082Z,81.58
2022-12-11T03:04:36.926Z,80.95
2022-12-11T03:07:30.613Z,81.68
2022-12-11T03:09:58.978Z,81.54
2022-12-11T03:12:34.245Z,81.05
2022-12-11T03:15:04.325Z,81.45
2022-12-11T03:17:41.642Z,81.67
2022-12-11T03:20:19.897Z,80.66
2022-12-11T03:22:54.808Z,80.65
2022-12-11T03:25:47.248Z,80.54
2022-12-11T03:28:21.947Z,80.87
2022-12-11T03:30:51.881Z,81.16
2022-12-11T03:33:34.493Z,81.03
2022-12-11T03:36:11.880Z,81.23
2022-12-11T03:38:56.903Z,80.58
2022-12-11T03:41:27.414Z,80.50
2022-12-11T03:43:58.665Z,80.74
2022-12-11T03:46:32.216Z,80.57
2022-12-11T03:49:04.780Z,80.33
2022-12-11T03:51:33.479Z,79.64
2022-12-11T03:54:02.631Z,79.66
2022-12-11T03:56:32.252Z,79.44
2022-12-11T03:58:58.999Z,80.34
2022-12-11T04:01:30.370Z,79.59
2022-12-11T04:03:58.622Z,79.29
2022-12-11T04:06:26.534Z,79.62
2022-12-11T04:08:53.060Z,79.86
2022-12-11T04:11:35.198Z,79.74
2022-12-11T04:14:29.193Z,79.59
2022-12-11T04:17:00.851Z,79.87
2022-12-11T04:19:50.455Z,80.26
2022-12-11T04:22:27.820Z,79.71
2022-12-11T04:24:56.561Z,80.17
2022-12-11T04:27:44.816Z,80.01
2022-12-11T04:30:16.252Z,80.34
2022-12-11T04:32:43.439Z,79.40
2022-12-11T04:35:13.832Z,79.83
2022-12-11T04:37:42.674Z,80.13
2022-12-11T04:40:14.823Z,80.75
2022-12-11T04:42:41.876Z,80.52
2022-12-11T04:45:12.639Z,80.93
2022-12-11T04:47:41.005Z,80.82
2022-12-11T04:50:16.739Z,80.84
2022-12-11T04:52:43.324Z,80.21
2022-12-11T04:55:11.628Z,80.87
2022-12-11T04:57:38.904Z,81.15
2022-12-11T05:00:07.839Z,80.50
2022-12-11T05:02:36.306Z,80.78
2022-12-11T05:05:06.256Z,80.72
2022-12-11T05:07:34.063Z,80.26
2022-12-11T05:10:02.138Z,80.58
2022-12-11T05:12:29.973Z,79.73
2022-12-11T05:14:57.970Z,80.13
2022-12-11T05:17:24.500Z,79.89
2022-12-11T05:19:52.089Z,79.73
2022-12-11T05:22:21.321Z,79.85
2022-12-11T05:24:48.173Z,79.73
2022-12-11T05:27:14.946Z,79.22
2022-12-11T05:29:44.715Z,79.09
2022-12-11T05:32:11.415Z,79.72
2022-12-11T05:34:38.267Z,79.24
2022-12-11T05:37:04.841Z,79.29
2022-12-11T05:39:31.357Z,78.91
2022-12-11T05:41:59.684Z,80.17
2022-12-11T05:44:26.374Z,81.28
2022-12-11T05:46:53.804Z,80.93
2022-12-11T05:49:28.984Z,81.18
2022-12-11T05:51:59.598Z,81.00
2022-12-11T05:54:26.341Z,81.04
2022-12-11T05:56:55.175Z,81.30
2022-12-11T05:59:22.185Z,81.35
2022-12-11T06:01:50.796Z,80.97
2022-12-11T06:04:19.000Z,81.55
2022-12-11T06:06:54.497Z,81.20
2022-12-11T06:09:23.407Z,81.09
2022-12-11T06:11:52.121Z,81.34
2022-12-11T06:14:18.580Z,80.94
2022-12-11T06:16:45.677Z,80.93
2022-12-11T06:19:17.366Z,80.35
2022-12-11T06:21:45.566Z,81.52
2022-12-11T06:24:16.776Z,81.83
2022-12-11T06:26:47.145Z,81.52
2022-12-11T06:29:14.868Z,81.92
2022-12-11T06:31:41.866Z,81.90
2022-12-11T06:34:09.509Z,82.02
2022-12-11T06:36:36.544Z,82.41
2022-12-11T06:39:04.560Z,82.05
2022-12-11T06:41:31.484Z,81.96
2022-12-11T06:43:58.355Z,81.05
2022-12-11T06:46:24.895Z,93.03
2022-12-11T06:48:52.079Z,97.79
2022-12-11T06:51:22.099Z,93.65
2022-12-11T06:53:55.360Z,86.20
2022-12-11T06:56:22.996Z,76.18
2022-12-11T06:58:50.126Z,71.76
2022-12-11T07:01:23.023Z,71.97
2022-12-11T07:03:52.199Z,72.68
2022-12-11T07:06:19.579Z,74.41
2022-12-11T07:08:46.374Z,75.21
2022-12-11T07:11:15.412Z,75.72
2022-12-11T07:13:42.969Z,76.54
2022-12-11T07:16:11.897Z,77.58
2022-12-11T07:18:41.368Z,77.50
2022-12-11T07:21:09.821Z,77.89
2022-12-11T07:23:38.327Z,78.37
2022-12-11T07:26:07.010Z,78.88
2022-12-11T07:28:34.457Z,78.83
2022-12-11T07:31:10.338Z,79.00
2022-12-11T07:33:37.347Z,79.69
2022-12-11T07:36:06.536Z,79.14
2022-12-11T07:38:33.582Z,79.34
2022-12-11T07:41:06.899Z,80.21
2022-12-11T07:43:35.211Z,79.87
2022-12-11T07:46:02.934Z,79.99
2022-12-11T07:48:29.957Z,79.80
2022-12-11T07:50:56.557Z,79.90
2022-12-11T07:53:24.303Z,80.28
2022-12-11T07:55:53.096Z,80.88
2022-12-11T07:58:21.725Z,81.79
2022-12-11T08:00:49.640Z,81.32
2022-12-11T08:03:18.292Z,81.73
2022-12-11T08:05:49.433Z,81.58
2022-12-11T08:08:17.173Z,81.60
2022-12-11T08:10:44.074Z,80.96
2022-12-11T08:13:10.948Z,81.16
2022-12-11T08:15:40.097Z,81.66
2022-12-11T08:18:07.875Z,81.51
2022-12-11T08:20:34.451Z,82.16
2022-12-11T08:23:00.986Z,81.80
2022-12-11T08:25:27.516Z,81.42
2022-12-11T08:27:54.069Z,81.79
2022-12-11T08:30:20.857Z,81.33
2022-12-11T08:32:47.837Z,81.46
2022-12-11T08:35:15.493Z,81.60
2022-12-11T08:37:42.785Z,81.32
2022-12-11T08:40:11.100Z,81.26
2022-12-11T08:42:38.086Z,80.96
2022-12-11T08:45:05.331Z,80.83
2022-12-11T08:47:31.912Z,80.47
2022-12-11T08:50:00.112Z,80.44
2022-12-11T08:52:26.694Z,80.00
2022-12-11T08:54:53.467Z,79.85
2022-12-11T08:57:22.504Z,79.94
2022-12-11T08:59:49.115Z,79.74
2022-12-11T09:02:15.715Z,80.11
2022-12-11T09:04:42.515Z,80.30
2022-12-11T09:07:09.587Z,80.60
2022-12-11T09:09:36.298Z,79.57
2022-12-11T09:12:04.611Z,79.44
2022-12-11T09:14:33.871Z,80.04
2022-12-11T09:17:02.889Z,80.00
2022-12-11T09:19:32.359Z,80.42
2022-12-11T09:21:59.159Z,79.75
2022-12-11T09:24:25.722Z,79.56
2022-12-11T09:26:52.327Z,80.20
2022-12-11T09:29:20.223Z,79.72
2022-12-11T09:31:47.193Z,79.94
2022-12-11T09:34:13.933Z,79.85
2022-12-11T09:36:42.513Z,80.07
2022-12-11T09:39:11.056Z,79.63
2022-12-11T09:42:05.301Z,79.48
2022-12-11T09:44:45.032Z,79.37
2022-12-11T09:47:21.815Z,79.29
2022-12-11T09:49:55.711Z,79.30
2022-12-11T09:53:01.667Z,79.01
2022-12-11T09:55:42.242Z,79.38
2022-12-11T09:58:34.497Z,79.01
2022-12-11T10:01:17.089Z,78.84
2022-12-11T10:04:00.532Z,78.40
2022-12-11T10:06:47.060Z,78.10
2022-12-11T10:09:39.260Z,78.35
2022-12-11T10:12:12.006Z,78.21
2022-12-11T10:14:56.630Z,77.96
2022-12-11T10:17:29.077Z,77.92
2022-12-11T10:20:02.974Z,77.74
2022-12-11T10:22:33.429Z,76.89
2022-12-11T10:25:12.167Z,77.47
2022-12-11T10:27:40.788Z,76.89
2022-12-11T10:30:16.887Z,77.63
2022-12-11T10:32:52.491Z,76.94
2022-12-11T10:35:29.637Z,76.65
2022-12-11T10:38:10.067Z,76.52
2022-12-11T10:40:42.546Z,76.08
2022-12-11T10:43:09.053Z,76.07
2022-12-11T10:45:36.509Z,76.30
2022-12-11T10:48:10.746Z,75.58
2022-12-11T10:50:37.867Z,76.44
2022-12-11T10:53:06.127Z,75.67
2022-12-11T10:55:45.623Z,75.64
2022-12-11T10:58:19.291Z,75.38
2022-12-11T11:00:46.512Z,75.04
2022-12-11T11:03:29.424Z,75.44
2022-12-11T11:06:24.792Z,75.03
2022-12-11T11:08:54.593Z,74.53
2022-12-11T11:11:34.269Z,75.18
2022-12-11T11:14:19.256Z,75.20
2022-12-11T11:16:48.898Z,75.15
2022-12-11T11:19:29.522Z,74.85
2022-12-11T11:22:02.757Z,74.53
2022-12-11T11:24:41.448Z,75.36
2022-12-11T11:27:28.093Z,75.34
2022-12-11T11:29:58.324Z,74.77
2022-12-11T11:32:32.172Z,74.24
2022-12-11T11:35:21.341Z,73.89
2022-12-11T11:37:58.260Z,73.92
2022-12-11T11:40:37.107Z,73.36
2022-12-11T11:43:29.461Z,72.79
2022-12-11T11:46:05.625Z,72.69
2022-12-11T11:48:55.806Z,72.95
2022-12-11T11:51:32.105Z,73.70
2022-12-11T11:54:03.310Z,73.47
2022-12-11T11:56:36.483Z,73.05
2022-12-11T11:59:22.475Z,72.79
2022-12-11T12:01:50.864Z,72.59
2022-12-11T12:04:17.643Z,72.55
2022-12-11T12:07:15.758Z,72.36
2022-12-11T12:10:07.953Z,72.66
2022-12-11T12:13:00.949Z,71.97
2022-12-11T12:15:51.324Z,72.30
2022-12-11T12:18:28.200Z,72.16
2022-12-11T12:21:27.200Z,72.07
2022-12-11T12:24:06.361Z,71.32
2022-12-11T12:26:36.598Z,71.75
2022-12-11T12:29:27.961Z,71.81
2022-12-11T12:32:16.642Z,72.43
2022-12-11T12:35:14.862Z,72.38
2022-12-11T12:37:55.955Z,72.86
2022-12-11T12:40:39.840Z,73.37
2022-12-11T12:43:31.892Z,73.05
2022-12-11T12:46:34.246Z,72.57
2022-12-11T12:49:02.814Z,72.38
2022-12-11T12:51:31.030Z,72.45
2022-12-11T12:54:01.761Z,71.75
2022-12-11T12:56:32.788Z,71.92
2022-12-11T12:59:01.810Z,72.22
2022-12-11T13:01:31.153Z,72.48
2022-12-11T13:04:05.905Z,72.63
2022-12-11T13:06:47.258Z,72.70
2022-12-11T13:09:19.686Z,72.28
2022-12-11T13:11:53.536Z,71.90
2022-12-11T13:14:33.702Z,73.12
2022-12-11T13:17:22.535Z,73.05
2022-12-11T13:19:52.996Z,72.17
2022-12-11T13:22:27.011Z,72.74
2022-12-11T13:24:53.478Z,72.50
2022-12-11T13:27:38.202Z,72.57
2022-12-11T13:30:19.725Z,72.98
2022-12-11T13:33:01.767Z,72.85
2022-12-11T13:35:28.593Z,73.16
2022-12-11T13:38:00.096Z,73.06
2022-12-11T13:40:35.239Z,72.37
2022-12-11T13:43:05.818Z,72.24
2022-12-11T13:45:50.054Z,72.24
2022-12-11T13:48:39.365Z,72.30
2022-12-11T13:51:06.883Z,72.41
2022-12-11T13:53:33.635Z,72.29
2022-12-11T13:56:16.502Z,72.41
2022-12-11T13:58:43.305Z,71.96
2022-12-11T14:01:15.299Z,72.08
2022-12-11T14:04:10.482Z,71.75
2022-12-11T14:06:38.850Z,72.17
2022-12-11T14:09:08.026Z,72.19
2022-12-11T14:11:38.092Z,71.86
2022-12-11T14:14:08.609Z,72.47
2022-12-11T14:16:35.379Z,72.57
2022-12-11T14:19:18.371Z,72.30
2022-12-11T14:22:05.752Z,72.01
2022-12-11T14:24:32.395Z,72.31
2022-12-11T14:27:00.321Z,72.49
2022-12-11T14:29:32.795Z,72.77
2022-12-11T14:32:06.310Z,72.44
2022-12-11T14:34:39.276Z,72.69
2022-12-11T14:37:08.690Z,72.69
2022-12-11T14:39:41.050Z,72.64
2022-12-11T14:42:22.238Z,72.64
2022-12-11T14:44:54.395Z,72.36
2022-12-11T14:47:28.209Z,72.51
2022-12-11T14:50:23.720Z,71.97
2022-12-11T14:53:02.270Z,71.75
2022-12-11T14:55:35.273Z,71.57
2022-12-11T14:58:21.279Z,72.20
2022-12-11T15:01:00.231Z,72.45
2022-12-11T15:03:38.645Z,71.86
2022-12-11T15:06:27.988Z,72.43
2022-12-11T15:08:54.724Z,72.12
2022-12-11T15:11:22.316Z,72.00
2022-12-11T15:14:02.771Z,72.39
2022-12-11T15:16:37.015Z,72.18
2022-12-11T15:19:07.060Z,72.03
2022-12-11T15:21:37.998Z,72.73
2022-12-11T15:24:07.146Z,72.12
2022-12-11T15:26:38.745Z,71.96
2022-12-11T15:29:23.943Z,72.27
2022-12-11T15:32:21.361Z,71.86
2022-12-11T15:34:54.994Z,71.79
2022-12-11T15:37:28.969Z,71.64
2022-12-11T15:39:57.308Z,72.49
2022-12-11T15:42:35.580Z,72.00
2022-12-11T15:45:05.650Z,71.63
2022-12-11T15:47:33.023Z,72.03
2022-12-11T15:50:16.224Z,72.48
2022-12-11T15:52:43.299Z,71.88
2022-12-11T15:55:12.020Z,71.70
2022-12-11T15:57:45.107Z,72.41
2022-12-11T16:00:17.529Z,72.63
2022-12-11T16:02:46.048Z,72.92
2022-12-11T16:05:13.213Z,72.44
2022-12-11T16:07:39.989Z,72.33
2022-12-11T16:10:08.302Z,72.41
2022-12-11T16:12:34.905Z,72.21
2022-12-11T16:15:02.625Z,72.05
2022-12-11T16:17:29.908Z,71.85
2022-12-11T16:19:56.690Z,71.92
2022-12-11T16:22:23.481Z,72.56
2022-12-11T16:24:55.004Z,72.61
2022-12-11T16:27:23.427Z,72.33
2022-12-11T16:29:50.833Z,72.59
2022-12-11T16:32:18.177Z,72.88
2022-12-11T16:34:45.069Z,72.76
2022-12-11T16:37:12.127Z,72.96
2022-12-11T16:39:41.372Z,72.90
2022-12-11T16:42:09.972Z,72.79
2022-12-11T16:44:41.002Z,72.94
2022-12-11T16:47:10.476Z,73.05
2022-12-11T16:49:36.961Z,73.01
2022-12-11T16:52:03.783Z,73.17
2022-12-11T16:54:30.506Z,72.60
2022-12-11T16:56:57.277Z,72.88
2022-12-11T16:59:23.916Z,73.26
2022-12-11T17:01:50.707Z,73.41
2022-12-11T17:04:17.880Z,72.66
2022-12-11T17:06:46.273Z,73.06
2022-12-11T17:09:13.379Z,72.67
2022-12-11T17:11:39.985Z,73.29
2022-12-11T17:14:06.811Z,72.86
2022-12-11T17:16:34.083Z,73.33
2022-12-11T17:19:00.854Z,73.17
2022-12-11T17:21:28.002Z,73.33
2022-12-11T17:23:56.322Z,73.33
2022-12-11T17:26:28.289Z,73.41
2022-12-11T17:28:56.782Z,73.41
2022-12-11T17:31:24.045Z,73.56
2022-12-11T17:33:50.811Z,72.94
2022-12-11T17:36:21.245Z,73.13
2022-12-11T17:38:50.131Z,73.45
2022-12-11T17:41:20.477Z,73.60
2022-12-11T17:43:49.495Z,73.05
2022-12-11T17:46:17.029Z,73.39
2022-12-11T17:48:44.065Z,73.58
2022-12-11T17:51:14.897Z,72.98
2022-12-11T17:53:43.279Z,72.99
2022-12-11T17:56:11.624Z,72.75
2022-12-11T17:58:41.054Z,72.44
2022-12-11T18:01:11.275Z,72.66
2022-12-11T18:03:38.473Z,72.76
2022-12-11T18:06:11.193Z,72.29
2022-12-11T18:08:39.167Z,72.32
2022-12-11T18:11:17.674Z,72.80
2022-12-11T18:13:45.910Z,72.79
2022-12-11T18:16:25.773Z,72.66
2022-12-11T18:18:52.486Z,73.29
2022-12-11T18:21:23.651Z,73.52
2022-12-11T18:23:52.056Z,73.21
2022-12-11T18:26:21.403Z,73.09
2022-12-11T18:28:49.488Z,73.28
2022-12-11T18:31:18.826Z,72.53
2022-12-11T18:33:47.479Z,72.87
2022-12-11T18:36:16.019Z,73.71
2022-12-11T18:38:43.351Z,73.38
2022-12-11T18:41:12.458Z,72.95
2022-12-11T18:43:40.634Z,72.74
2022-12-11T18:46:09.853Z,73.26
2022-12-11T18:48:37.308Z,72.38
2022-12-11T18:51:09.025Z,73.03
2022-12-11T18:53:37.404Z,73.04
2022-12-11T18:56:09.791Z,72.81
2022-12-11T18:58:36.435Z,72.74
2022-12-11T19:01:12.383Z,72.82
2022-12-11T19:03:39.206Z,73.67
2022-12-11T19:06:18.000Z,73.38
2022-12-11T19:08:46.254Z,73.74
2022-12-11T19:11:20.842Z,73.59
2022-12-11T19:13:47.739Z,73.92
2022-12-11T19:16:20.309Z,73.51
2022-12-11T19:18:48.794Z,72.77
2022-12-11T19:21:17.080Z,72.28
2022-12-11T19:23:45.759Z,72.54
2022-12-11T19:26:21.483Z,71.79
2022-12-11T19:28:52.008Z,71.53
2022-12-11T19:31:21.964Z,71.52
2022-12-11T19:33:49.403Z,71.97
2022-12-11T19:36:19.017Z,71.78
2022-12-11T19:38:45.900Z,72.23
2022-12-11T19:41:26.729Z,72.18
2022-12-11T19:43:55.387Z,72.03
2022-12-11T19:46:27.114Z,72.58
2022-12-11T19:48:59.471Z,72.13
2022-12-11T19:51:34.519Z,71.84
2022-12-11T19:54:03.446Z,71.75
2022-12-11T19:56:30.900Z,71.19
2022-12-11T19:59:00.675Z,70.82
2022-12-11T20:01:31.769Z,71.16
2022-12-11T20:04:01.133Z,71.51
2022-12-11T20:06:30.036Z,71.25
2022-12-11T20:08:56.989Z,71.37
2022-12-11T20:11:24.115Z,71.58
2022-12-11T20:13:51.464Z,70.92
2022-12-11T20:16:33.325Z,71.19
2022-12-11T20:19:08.400Z,71.54
2022-12-11T20:21:34.933Z,71.54
2022-12-11T20:24:01.676Z,70.60
2022-12-11T20:26:31.243Z,70.31
2022-12-11T20:28:58.084Z,71.01
2022-12-11T20:31:25.879Z,70.25
2022-12-11T20:33:56.006Z,70.97
2022-12-11T20:36:25.292Z,70.85
2022-12-11T20:38:54.978Z,70.85
2022-12-11T20:41:25.621Z,70.35
2022-12-11T20:43:57.690Z,69.98
2022-12-11T20:46:26.212Z,70.22
2022-12-11T20:48:54.359Z,70.73
2022-12-11T20:51:26.072Z,71.41
2022-12-11T20:54:01.843Z,71.68
2022-12-11T20:56:31.055Z,71.84
2022-12-11T20:58:59.372Z,71.81
2022-12-11T21:01:29.680Z,71.37
2022-12-11T21:03:56.732Z,71.31
2022-12-11T21:06:26.906Z,70.90
2022-12-11T21:08:54.833Z,70.22
2022-12-11T21:11:23.199Z,70.43
2022-12-11T21:13:55.169Z,70.93
2022-12-11T21:16:22.883Z,70.15
2022-12-11T21:18:49.856Z,70.51
2022-12-11T21:21:17.335Z,70.88
2022-12-11T21:23:45.795Z,70.29
2022-12-11T21:26:13.401Z,86.52
2022-12-11T21:28:41.407Z,85.74
2022-12-11T21:31:13.221Z,71.59
2022-12-11T21:33:40.304Z,69.83
2022-12-11T21:36:11.287Z,69.84
2022-12-11T21:38:38.587Z,70.69
2022-12-11T21:41:15.652Z,71.07
2022-12-11T21:44:14.507Z,71.24
2022-12-11T21:46:30.347Z,71.38
2022-12-11T21:48:58.037Z,70.83
2022-12-11T21:51:32.574Z,71.12
2022-12-11T21:54:09.788Z,70.53
2022-12-11T21:56:36.954Z,70.95
2022-12-11T21:59:04.036Z,70.97
2022-12-11T22:01:35.449Z,70.87
2022-12-11T22:04:04.990Z,70.34
2022-12-11T22:06:32.034Z,71.03
2022-12-11T22:08:58.631Z,70.75
2022-12-11T22:11:27.941Z,70.47
2022-12-11T22:13:55.040Z,71.06
2022-12-11T22:16:22.966Z,70.76
2022-12-11T22:18:49.777Z,70.89
2022-12-11T22:21:17.160Z,71.33
2022-12-11T22:23:44.003Z,70.58
2022-12-11T22:26:16.756Z,70.23
2022-12-11T22:28:43.808Z,70.30
2022-12-11T22:31:12.341Z,70.55
2022-12-11T22:33:40.280Z,70.51
2022-12-11T22:36:07.748Z,70.90
2022-12-11T22:38:34.756Z,70.99
2022-12-11T22:41:03.035Z,70.39
2022-12-11T22:43:29.573Z,70.89
2022-12-11T22:45:58.848Z,70.48
2022-12-11T22:48:27.462Z,70.37
2022-12-11T22:50:56.887Z,70.68
2022-12-11T22:53:23.496Z,70.18
2022-12-11T22:55:53.130Z,69.43
2022-12-11T22:58:21.895Z,69.83
2022-12-11T23:00:48.844Z,70.45
2022-12-11T23:03:15.566Z,70.39
2022-12-11T23:05:47.341Z,69.85
2022-12-11T23:08:14.232Z,69.74
2022-12-11T23:10:41.725Z,69.46
2022-12-11T23:13:10.974Z,69.76
2022-12-11T23:15:39.236Z,69.95
2022-12-11T23:18:08.291Z,69.66
2022-12-11T23:20:34.865Z,69.17
2022-12-11T23:23:01.409Z,69.41
2022-12-11T23:25:30.889Z,69.29
2022-12-11T23:28:04.284Z,69.48
2022-12-11T23:30:30.794Z,70.05
2022-12-11T23:32:58.659Z,69.49
2022-12-11T23:35:25.305Z,69.58
2022-12-11T23:37:53.690Z,70.35
2022-12-11T23:40:22.267Z,70.52
2022-12-11T23:42:52.491Z,70.02
2022-12-11T23:45:21.309Z,70.42
2022-12-11T23:47:48.391Z,70.24
2022-12-11T23:50:23.834Z,70.26
2022-12-11T23:52:53.025Z,70.22
2022-12-11T23:55:20.374Z,69.35
2022-12-11T23:57:49.049Z,69.65
